createdAt,value
2022-11-19T00:01:16.528Z,109.97
2022-11-19T00:03:47.555Z,109.77
2022-11-19T00:06:19.561Z,109.55
2022-11-19T00:08:46.692Z,109.43
2022-11-19T00:11:44.177Z,109.11
2022-11-19T00:14:13.116Z,109.04
2022-11-19T00:16:40.448Z,108.79
2022-11-19T00:19:10.625Z,109.09
2022-11-19T00:21:37.318Z,108.85
2022-11-19T00:24:04.290Z,109.05
2022-11-19T00:26:30.985Z,109.23
2022-11-19T00:28:57.773Z,108.70
2022-11-19T00:31:24.457Z,108.67
2022-11-19T00:33:51.244Z,108.52
2022-11-19T00:36:18.090Z,108.56
2022-11-19T00:38:45.131Z,108.89
2022-11-19T00:41:12.082Z,108.82
2022-11-19T00:43:47.956Z,108.44
2022-11-19T00:46:22.490Z,108.35
2022-11-19T00:48:51.726Z,108.04
2022-11-19T00:51:20.504Z,108.10
2022-11-19T00:53:47.550Z,108.27
2022-11-19T00:56:17.569Z,108.85
2022-11-19T00:58:45.437Z,108.68
2022-11-19T01:01:13.350Z,108.74
2022-11-19T01:03:41.997Z,108.49
2022-11-19T01:06:09.933Z,108.44
2022-11-19T01:08:37.383Z,108.55
2022-11-19T01:11:25.463Z,108.78
2022-11-19T01:13:52.365Z,108.71
2022-11-19T01:16:28.789Z,108.01
2022-11-19T01:18:56.198Z,108.49
2022-11-19T01:21:25.499Z,108.06
2022-11-19T01:23:52.747Z,108.55
2022-11-19T01:26:19.872Z,108.70
2022-11-19T01:28:46.964Z,108.97
2022-11-19T01:31:15.873Z,108.61
2022-11-19T01:33:43.471Z,108.97
2022-11-19T01:36:24.757Z,109.35
2022-11-19T01:38:51.763Z,109.13
2022-11-19T01:41:20.193Z,108.72
2022-11-19T01:43:51.583Z,109.14
2022-11-19T01:46:23.606Z,108.70
2022-11-19T01:48:53.335Z,110.04
2022-11-19T01:51:26.000Z,110.34
2022-11-19T01:53:55.398Z,110.26
2022-11-19T01:56:23.960Z,110.63
2022-11-19T01:58:56.820Z,110.80
2022-11-19T02:01:23.979Z,114.45
2022-11-19T02:03:52.455Z,111.42
2022-11-19T02:06:19.236Z,111.25
2022-11-19T02:08:50.503Z,112.71
2022-11-19T02:11:36.004Z,113.05
2022-11-19T02:14:27.589Z,112.85
2022-11-19T02:17:16.880Z,113.58
2022-11-19T02:20:02.528Z,114.05
2022-11-19T02:22:38.434Z,113.74
2022-11-19T02:25:25.269Z,113.64
2022-11-19T02:28:13.831Z,113.73
2022-11-19T02:30:51.480Z,114.00
2022-11-19T02:33:36.239Z,113.50
2022-11-19T02:36:14.873Z,113.58
2022-11-19T02:39:01.779Z,114.04
2022-11-19T02:41:44.645Z,114.10
2022-11-19T02:44:41.320Z,114.41
2022-11-19T02:47:12.473Z,114.55
2022-11-19T02:49:46.573Z,114.77
2022-11-19T02:52:17.665Z,114.38
2022-11-19T02:54:45.456Z,114.41
2022-11-19T02:57:14.010Z,114.65
2022-11-19T03:00:23.407Z,114.29
2022-11-19T03:03:23.448Z,114.35
2022-11-19T03:05:58.385Z,113.93
2022-11-19T03:08:27.666Z,113.63
2022-11-19T03:11:23.344Z,112.85
2022-11-19T03:14:17.755Z,113.87
2022-11-19T03:16:58.583Z,114.27
2022-11-19T03:19:50.341Z,114.13
2022-11-19T03:22:45.814Z,113.42
2022-11-19T03:25:18.483Z,113.32
2022-11-19T03:27:52.923Z,113.34
2022-11-19T03:30:20.115Z,113.44
2022-11-19T03:33:15.989Z,113.55
2022-11-19T03:35:51.789Z,112.76
2022-11-19T03:38:26.778Z,113.32
2022-11-19T03:40:55.238Z,114.00
2022-11-19T03:43:26.676Z,113.32
2022-11-19T03:45:56.395Z,113.07
2022-11-19T03:48:23.832Z,113.60
2022-11-19T03:51:15.026Z,113.02
2022-11-19T03:53:41.965Z,112.54
2022-11-19T03:56:12.702Z,112.60
2022-11-19T03:58:43.420Z,112.91
2022-11-19T04:01:10.965Z,113.44
2022-11-19T04:03:38.104Z,113.54
2022-11-19T04:06:05.636Z,113.93
2022-11-19T04:08:32.695Z,113.63
2022-11-19T04:13:25.406Z,113.55
2022-11-19T04:15:52.087Z,113.74
2022-11-19T04:18:18.843Z,113.87
2022-11-19T04:20:45.687Z,113.78
2022-11-19T04:23:12.427Z,113.60
2022-11-19T04:25:41.341Z,114.42
2022-11-19T04:28:07.946Z,114.41
2022-11-19T04:30:34.650Z,114.36
2022-11-19T04:33:01.416Z,114.42
2022-11-19T04:35:28.054Z,114.24
2022-11-19T04:37:54.667Z,114.35
2022-11-19T04:40:21.409Z,114.48
2022-11-19T04:42:48.069Z,114.48
2022-11-19T04:45:15.451Z,114.41
2022-11-19T04:47:42.264Z,114.96
2022-11-19T04:50:09.490Z,114.98
2022-11-19T04:52:40.628Z,115.15
2022-11-19T04:55:08.647Z,115.35
2022-11-19T04:57:35.414Z,115.12
2022-11-19T05:00:02.353Z,114.90
2022-11-19T05:02:29.047Z,114.51
2022-11-19T05:04:55.673Z,114.48
2022-11-19T05:07:22.448Z,114.03
2022-11-19T05:09:49.208Z,114.11
2022-11-19T05:12:16.013Z,113.87
2022-11-19T05:14:42.675Z,113.58
2022-11-19T05:17:09.409Z,114.12
2022-11-19T05:19:36.221Z,114.16
2022-11-19T05:22:02.962Z,113.69
2022-11-19T05:24:29.626Z,114.22
2022-11-19T05:26:56.366Z,114.12
2022-11-19T05:29:23.109Z,114.02
2022-11-19T05:31:49.828Z,113.54
2022-11-19T05:34:16.519Z,113.41
2022-11-19T05:36:43.355Z,113.65
2022-11-19T05:39:09.996Z,114.25
2022-11-19T05:41:36.654Z,114.25
2022-11-19T05:44:03.641Z,114.64
2022-11-19T05:46:30.322Z,114.82
2022-11-19T05:48:57.014Z,114.63
2022-11-19T05:51:23.756Z,114.55
2022-11-19T05:53:50.405Z,114.08
2022-11-19T05:56:17.980Z,114.14
2022-11-19T05:58:44.822Z,114.51
2022-11-19T06:01:11.510Z,114.61
2022-11-19T06:03:38.273Z,114.77
2022-11-19T06:06:05.213Z,114.50
2022-11-19T06:08:31.875Z,114.12
2022-11-19T06:10:58.622Z,114.13
2022-11-19T06:13:25.351Z,114.08
2022-11-19T06:15:52.862Z,114.11
2022-11-19T06:18:19.529Z,114.15
2022-11-19T06:20:46.278Z,114.59
2022-11-19T06:23:12.931Z,114.26
2022-11-19T06:25:39.792Z,114.58
2022-11-19T06:28:06.495Z,114.90
2022-11-19T06:30:33.180Z,115.22
2022-11-19T06:32:59.856Z,115.61
2022-11-19T06:35:26.507Z,115.35
2022-11-19T06:37:53.133Z,115.17
2022-11-19T06:40:21.920Z,114.85
2022-11-19T06:42:51.058Z,114.17
2022-11-19T06:45:18.025Z,114.36
2022-11-19T06:47:48.047Z,114.60
2022-11-19T06:50:14.843Z,115.12
2022-11-19T06:52:41.683Z,115.69
2022-11-19T06:55:08.976Z,115.25
2022-11-19T06:57:35.890Z,115.48
2022-11-19T07:00:03.171Z,115.57
2022-11-19T07:02:30.143Z,115.77
2022-11-19T07:04:57.086Z,115.82
2022-11-19T07:07:23.870Z,115.93
2022-11-19T07:09:50.620Z,115.26
2022-11-19T07:12:17.754Z,114.90
2022-11-19T07:14:44.415Z,115.41
2022-11-19T07:17:11.362Z,115.83
2022-11-19T07:19:38.167Z,115.51
2022-11-19T07:22:04.966Z,115.89
2022-11-19T07:24:31.953Z,116.56
2022-11-19T07:26:58.739Z,116.34
2022-11-19T07:29:25.390Z,116.39
2022-11-19T07:31:53.292Z,116.95
2022-11-19T07:34:20.492Z,117.20
2022-11-19T07:36:48.191Z,117.28
2022-11-19T07:39:15.031Z,117.15
2022-11-19T07:42:00.287Z,116.81
2022-11-19T07:44:27.099Z,116.88
2022-11-19T07:46:53.911Z,117.01
2022-11-19T07:49:21.364Z,116.83
2022-11-19T07:51:48.293Z,116.69
2022-11-19T07:54:15.254Z,116.80
2022-11-19T07:56:42.816Z,116.84
2022-11-19T07:59:10.521Z,116.30
2022-11-19T08:01:37.786Z,116.45
2022-11-19T08:04:05.406Z,116.14
2022-11-19T08:06:34.660Z,115.44
2022-11-19T08:09:02.981Z,115.30
2022-11-19T08:11:29.872Z,115.26
2022-11-19T08:13:58.631Z,114.99
2022-11-19T08:16:43.947Z,114.86
2022-11-19T08:19:14.347Z,114.29
2022-11-19T08:21:44.089Z,114.08
2022-11-19T08:24:11.606Z,114.09
2022-11-19T08:26:38.940Z,113.79
2022-11-19T08:29:10.456Z,112.94
2022-11-19T08:31:40.951Z,112.45
2022-11-19T08:34:07.866Z,111.88
2022-11-19T08:36:34.484Z,111.56
2022-11-19T08:39:02.396Z,112.19
2022-11-19T08:41:47.463Z,112.21
2022-11-19T08:44:14.685Z,112.23
2022-11-19T08:46:41.351Z,111.71
2022-11-19T08:49:08.078Z,111.05
2022-11-19T08:51:35.135Z,110.94
2022-11-19T08:54:01.850Z,110.46
2022-11-19T08:56:28.551Z,110.65
2022-11-19T08:59:01.320Z,110.45
2022-11-19T09:01:29.590Z,109.92
2022-11-19T09:03:56.430Z,109.52
2022-11-19T09:06:23.385Z,109.99
2022-11-19T09:08:50.222Z,110.74
2022-11-19T09:11:18.719Z,110.21
2022-11-19T09:13:45.748Z,109.91
2022-11-19T09:16:12.838Z,109.82
2022-11-19T09:18:41.918Z,109.39
2022-11-19T09:21:10.973Z,109.79
2022-11-19T09:23:38.253Z,109.31
2022-11-19T09:26:11.917Z,108.65
2022-11-19T09:28:38.910Z,108.58
2022-11-19T09:31:17.204Z,107.76
2022-11-19T09:33:46.697Z,107.30
2022-11-19T09:36:14.264Z,108.04
2022-11-19T09:38:41.220Z,107.53
2022-11-19T09:41:22.993Z,106.20
2022-11-19T09:44:02.307Z,105.89
2022-11-19T09:46:43.285Z,106.08
2022-11-19T09:49:15.841Z,106.47
2022-11-19T09:51:51.048Z,105.61
2022-11-19T09:54:20.569Z,105.68
2022-11-19T09:56:50.097Z,105.77
2022-11-19T09:59:39.395Z,105.55
2022-11-19T10:02:17.759Z,105.34
2022-11-19T10:04:45.720Z,105.82
2022-11-19T10:07:30.281Z,105.20
2022-11-19T10:10:12.836Z,104.89
2022-11-19T10:12:51.838Z,105.86
2022-11-19T10:15:24.186Z,105.04
2022-11-19T10:18:13.777Z,104.02
2022-11-19T10:21:03.842Z,106.14
2022-11-19T10:24:02.665Z,106.45
2022-11-19T10:26:39.608Z,104.57
2022-11-19T10:29:19.155Z,105.12
2022-11-19T10:31:48.888Z,104.36
2022-11-19T10:34:27.288Z,104.89
2022-11-19T10:37:01.877Z,105.81
2022-11-19T10:40:02.506Z,106.21
2022-11-19T10:43:01.004Z,104.82
2022-11-19T10:45:30.134Z,105.53
2022-11-19T10:48:08.899Z,105.39
2022-11-19T10:50:36.549Z,105.41
2022-11-19T10:53:18.038Z,105.55
2022-11-19T10:55:54.731Z,105.29
2022-11-19T10:58:24.501Z,105.52
2022-11-19T11:00:56.409Z,105.45
2022-11-19T11:03:45.627Z,104.71
2022-11-19T11:06:13.168Z,105.15
2022-11-19T11:08:54.904Z,105.72
2022-11-19T11:11:49.745Z,106.43
2022-11-19T11:14:37.626Z,106.60
2022-11-19T11:17:15.080Z,105.77
2022-11-19T11:19:42.543Z,105.43
2022-11-19T11:22:09.565Z,105.11
2022-11-19T11:24:39.201Z,105.21
2022-11-19T11:27:21.224Z,103.81
2022-11-19T11:29:48.396Z,104.31
2022-11-19T11:32:30.798Z,103.33
2022-11-19T11:35:00.279Z,104.05
2022-11-19T11:37:30.680Z,104.60
2022-11-19T11:39:58.545Z,105.23
2022-11-19T11:42:28.680Z,104.13
2022-11-19T11:45:01.066Z,104.84
2022-11-19T11:47:37.794Z,104.79
2022-11-19T11:50:17.342Z,104.82
2022-11-19T11:52:48.430Z,104.75
2022-11-19T11:55:29.269Z,104.50
2022-11-19T11:58:01.438Z,104.71
2022-11-19T12:00:44.438Z,104.63
2022-11-19T12:03:13.912Z,105.11
2022-11-19T12:05:44.892Z,105.11
2022-11-19T12:08:33.050Z,105.11
2022-11-19T12:10:59.804Z,105.23
2022-11-19T12:13:54.238Z,104.59
2022-11-19T12:16:38.953Z,104.73
2022-11-19T12:19:21.102Z,104.09
2022-11-19T12:22:23.545Z,105.01
2022-11-19T12:25:08.980Z,104.96
2022-11-19T12:27:47.373Z,104.78
2022-11-19T12:30:18.181Z,104.77
2022-11-19T12:33:08.162Z,104.83
2022-11-19T12:36:04.735Z,104.63
2022-11-19T12:38:45.681Z,103.14
2022-11-19T12:41:35.642Z,104.17
2022-11-19T12:44:08.648Z,102.80
2022-11-19T12:46:44.507Z,102.59
2022-11-19T12:49:42.387Z,102.25
2022-11-19T12:52:27.440Z,102.48
2022-11-19T12:55:21.586Z,102.67
2022-11-19T12:58:01.756Z,102.58
2022-11-19T13:00:30.189Z,101.86
2022-11-19T13:03:08.765Z,100.93
2022-11-19T13:05:42.592Z,100.54
2022-11-19T13:08:22.550Z,100.40
2022-11-19T13:11:05.242Z,99.61
2022-11-19T13:13:35.487Z,98.94
2022-11-19T13:16:08.863Z,98.05
2022-11-19T13:18:39.072Z,96.62
2022-11-19T13:21:42.645Z,96.68
2022-11-19T13:24:29.642Z,96.68
2022-11-19T13:27:02.169Z,97.58
2022-11-19T13:29:36.434Z,96.84
2022-11-19T13:32:16.784Z,95.76
2022-11-19T13:34:53.515Z,96.07
2022-11-19T13:37:52.687Z,95.39
2022-11-19T13:40:47.358Z,95.33
2022-11-19T13:43:41.789Z,96.44
2022-11-19T13:46:32.612Z,96.11
2022-11-19T13:49:07.935Z,97.03
2022-11-19T13:51:38.226Z,97.61
2022-11-19T13:54:08.190Z,96.23
2022-11-19T13:56:49.686Z,97.70
2022-11-19T13:59:39.498Z,96.92
2022-11-19T14:02:38.452Z,97.82
2022-11-19T14:05:48.728Z,96.58
2022-11-19T14:08:47.248Z,98.05
2022-11-19T14:11:19.838Z,98.12
2022-11-19T14:14:36.268Z,99.03
2022-11-19T14:17:58.784Z,99.78
2022-11-19T14:20:57.442Z,99.13
2022-11-19T14:23:54.862Z,98.72
2022-11-19T14:26:39.756Z,98.30
2022-11-19T14:29:19.243Z,99.29
2022-11-19T14:32:03.043Z,99.06
2022-11-19T14:34:32.527Z,98.96
2022-11-19T14:37:04.045Z,96.38
2022-11-19T14:39:38.486Z,97.42
2022-11-19T14:42:13.658Z,98.50
2022-11-19T14:44:40.912Z,97.21
2022-11-19T14:47:23.842Z,97.03
2022-11-19T14:49:54.732Z,96.79
2022-11-19T14:52:49.320Z,99.20
2022-11-19T14:55:30.196Z,98.27
2022-11-19T14:58:02.341Z,97.94
2022-11-19T15:00:36.066Z,99.38
2022-11-19T15:03:05.922Z,100.77
2022-11-19T15:05:35.922Z,101.64
2022-11-19T15:08:17.984Z,101.58
2022-11-19T15:10:47.771Z,101.40
2022-11-19T15:13:21.270Z,101.65
2022-11-19T15:15:50.583Z,102.32
2022-11-19T15:18:42.451Z,101.64
2022-11-19T15:21:30.642Z,99.90
2022-11-19T15:24:14.911Z,100.30
2022-11-19T15:26:49.385Z,100.77
2022-11-19T15:29:48.010Z,100.57
2022-11-19T15:32:48.466Z,100.98
2022-11-19T15:35:33.861Z,99.43
2022-11-19T15:38:17.000Z,100.09
2022-11-19T15:40:49.521Z,101.67
2022-11-19T15:43:42.315Z,101.19
2022-11-19T15:46:39.434Z,101.12
2022-11-19T15:49:29.154Z,100.61
2022-11-19T15:52:01.739Z,100.34
2022-11-19T15:54:30.936Z,99.96
2022-11-19T15:57:05.624Z,99.59
2022-11-19T15:59:38.017Z,99.62
2022-11-19T16:02:15.639Z,99.24
2022-11-19T16:04:42.629Z,98.38
2022-11-19T16:07:10.611Z,98.50
2022-11-19T16:09:37.989Z,100.00
2022-11-19T16:12:23.187Z,98.19
2022-11-19T16:15:13.782Z,98.64
2022-11-19T16:17:46.853Z,97.38
2022-11-19T16:20:13.511Z,97.50
2022-11-19T16:22:49.383Z,98.72
2022-11-19T16:25:33.661Z,98.56
2022-11-19T16:28:11.491Z,98.57
2022-11-19T16:30:51.522Z,98.33
2022-11-19T16:33:24.146Z,98.44
2022-11-19T16:35:53.571Z,98.19
2022-11-19T16:38:28.234Z,98.35
2022-11-19T16:41:14.871Z,98.46
2022-11-19T16:43:48.646Z,98.26
2022-11-19T16:46:20.307Z,98.36
2022-11-19T16:48:49.987Z,98.06
2022-11-19T16:51:31.333Z,97.59
2022-11-19T16:53:58.779Z,97.20
2022-11-19T16:56:26.650Z,97.07
2022-11-19T16:58:59.901Z,97.02
2022-11-19T17:01:29.535Z,98.64
2022-11-19T17:04:08.157Z,97.58
2022-11-19T17:06:37.255Z,98.32
2022-11-19T17:09:05.800Z,99.13
2022-11-19T17:12:09.287Z,98.26
2022-11-19T17:14:36.012Z,97.75
2022-11-19T17:17:03.555Z,97.84
2022-11-19T17:19:35.028Z,98.24
2022-11-19T17:22:21.661Z,98.08
2022-11-19T17:24:48.718Z,98.04
2022-11-19T17:27:28.188Z,97.53
2022-11-19T17:30:07.727Z,97.92
2022-11-19T17:32:56.483Z,96.93
2022-11-19T17:35:43.252Z,97.60
2022-11-19T17:38:27.838Z,97.61
2022-11-19T17:41:03.008Z,98.44
2022-11-19T17:43:49.990Z,96.75
2022-11-19T17:46:17.001Z,97.65
2022-11-19T17:48:46.284Z,96.87
2022-11-19T17:51:15.470Z,96.93
2022-11-19T17:53:42.509Z,95.35
2022-11-19T17:56:18.272Z,95.88
2022-11-19T17:58:44.982Z,95.52
2022-11-19T18:01:12.206Z,95.29
2022-11-19T18:03:39.310Z,95.72
2022-11-19T18:06:08.456Z,95.26
2022-11-19T18:08:37.049Z,95.27
2022-11-19T18:11:04.873Z,95.81
2022-11-19T18:13:35.429Z,94.54
2022-11-19T18:16:02.278Z,95.99
2022-11-19T18:18:29.071Z,94.31
2022-11-19T18:21:01.695Z,94.28
2022-11-19T18:23:29.043Z,93.50
2022-11-19T18:25:55.828Z,95.59
2022-11-19T18:28:22.611Z,94.21
2022-11-19T18:30:49.306Z,94.68
2022-11-19T18:33:15.976Z,94.05
2022-11-19T18:35:42.883Z,94.36
2022-11-19T18:38:09.584Z,94.25
2022-11-19T18:40:36.361Z,94.53
2022-11-19T18:43:21.728Z,94.74
2022-11-19T18:45:48.336Z,94.62
2022-11-19T18:48:15.072Z,95.30
2022-11-19T18:50:41.997Z,95.17
2022-11-19T18:53:11.014Z,95.88
2022-11-19T18:55:38.230Z,95.72
2022-11-19T18:58:05.127Z,95.26
2022-11-19T19:00:31.896Z,96.07
2022-11-19T19:03:00.422Z,95.05
2022-11-19T19:05:27.325Z,94.36
2022-11-19T19:07:54.084Z,94.85
2022-11-19T19:10:20.777Z,95.01
2022-11-19T19:12:47.517Z,94.95
2022-11-19T19:15:15.355Z,95.27
2022-11-19T19:17:42.077Z,95.00
2022-11-19T19:20:09.510Z,95.10
2022-11-19T19:22:36.279Z,95.42
2022-11-19T19:25:05.090Z,95.88
2022-11-19T19:27:32.242Z,95.56
2022-11-19T19:29:58.979Z,95.75
2022-11-19T19:32:26.251Z,95.83
2022-11-19T19:34:53.143Z,96.26
2022-11-19T19:37:20.279Z,97.47
2022-11-19T19:39:46.968Z,96.39
2022-11-19T19:42:13.736Z,96.75
2022-11-19T19:44:40.506Z,95.68
2022-11-19T19:47:07.466Z,95.66
2022-11-19T19:49:38.619Z,95.15
2022-11-19T19:52:05.939Z,95.54
2022-11-19T19:54:32.749Z,95.14
2022-11-19T19:56:59.504Z,96.09
2022-11-19T19:59:26.228Z,95.31
2022-11-19T20:01:53.842Z,95.28
2022-11-19T20:04:20.624Z,95.66
2022-11-19T20:06:47.995Z,96.49
2022-11-19T20:09:15.238Z,96.22
2022-11-19T20:11:41.992Z,96.51
2022-11-19T20:14:10.164Z,96.26
2022-11-19T20:16:41.114Z,96.20
2022-11-19T20:19:12.628Z,96.93
2022-11-19T20:21:39.397Z,96.76
2022-11-19T20:24:12.079Z,97.29
2022-11-19T20:26:41.010Z,96.37
2022-11-19T20:29:11.646Z,96.73
2022-11-19T20:31:38.833Z,96.28
2022-11-19T20:34:06.377Z,96.71
2022-11-19T20:36:35.060Z,96.39
2022-11-19T20:39:02.215Z,96.44
2022-11-19T20:41:48.161Z,97.04
2022-11-19T20:44:25.493Z,97.61
2022-11-19T20:46:57.406Z,97.55
2022-11-19T20:49:29.199Z,97.53
2022-11-19T20:51:56.522Z,98.10
2022-11-19T20:54:24.081Z,98.17
2022-11-19T20:56:52.505Z,98.33
2022-11-19T20:59:20.329Z,98.88
2022-11-19T21:01:50.961Z,97.94
2022-11-19T21:04:19.103Z,97.47
2022-11-19T21:06:46.233Z,97.01
2022-11-19T21:09:13.064Z,96.94
2022-11-19T21:11:39.740Z,96.75
2022-11-19T21:14:06.948Z,96.80
2022-11-19T21:16:34.785Z,96.69
2022-11-19T21:19:01.698Z,96.95
2022-11-19T21:21:28.566Z,97.76
2022-11-19T21:23:55.740Z,98.93
2022-11-19T21:26:25.474Z,98.88
2022-11-19T21:28:57.722Z,99.06
2022-11-19T21:31:44.511Z,98.14
2022-11-19T21:34:13.717Z,98.70
2022-11-19T21:36:41.907Z,99.63
2022-11-19T21:39:10.060Z,99.59
2022-11-19T21:41:37.134Z,99.56
2022-11-19T21:44:04.635Z,98.87
2022-11-19T21:46:31.501Z,98.60
2022-11-19T21:48:58.535Z,98.59
2022-11-19T21:51:25.637Z,99.42
2022-11-19T21:53:59.054Z,99.30
2022-11-19T21:56:26.956Z,99.83
2022-11-19T21:58:53.848Z,99.30
2022-11-19T22:01:21.116Z,99.08
2022-11-19T22:03:48.456Z,99.06
2022-11-19T22:06:15.247Z,99.16
2022-11-19T22:08:42.493Z,99.57
2022-11-19T22:11:29.318Z,99.01
2022-11-19T22:13:58.128Z,99.14
2022-11-19T22:16:25.053Z,99.35
2022-11-19T22:18:51.737Z,100.29
2022-11-19T22:21:18.676Z,100.60
2022-11-19T22:23:46.455Z,100.70
2022-11-19T22:26:13.685Z,101.43
2022-11-19T22:28:40.378Z,102.41
2022-11-19T22:31:07.257Z,103.30
2022-11-19T22:33:36.496Z,103.91
2022-11-19T22:36:09.719Z,104.50
2022-11-19T22:38:38.430Z,104.68
2022-11-19T22:41:10.119Z,104.69
2022-11-19T22:43:38.351Z,105.01
2022-11-19T22:46:06.905Z,104.69
2022-11-19T22:48:33.825Z,105.24
2022-11-19T22:51:12.010Z,105.15
2022-11-19T22:53:38.893Z,105.58
2022-11-19T22:56:08.728Z,105.23
2022-11-19T22:58:36.852Z,105.34
2022-11-19T23:01:04.736Z,105.33
2022-11-19T23:03:31.384Z,105.34
2022-11-19T23:05:59.289Z,105.67
2022-11-19T23:08:26.401Z,106.02
2022-11-19T23:11:01.628Z,105.63
2022-11-19T23:13:33.550Z,105.72
2022-11-19T23:16:18.383Z,105.65
2022-11-19T23:18:50.488Z,105.56
2022-11-19T23:21:20.181Z,105.80
2022-11-19T23:23:47.247Z,106.30
2022-11-19T23:26:16.486Z,106.83
2022-11-19T23:28:44.697Z,107.14
2022-11-19T23:31:22.445Z,107.35
2022-11-19T23:33:54.470Z,105.92
2022-11-19T23:36:30.056Z,106.13
2022-11-19T23:38:57.503Z,106.59
2022-11-19T23:41:24.649Z,106.76
2022-11-19T23:43:54.314Z,107.35
2022-11-19T23:46:23.344Z,107.30
2022-11-19T23:48:50.111Z,107.66
2022-11-19T23:51:20.097Z,107.92
2022-11-19T23:53:47.486Z,107.62
2022-11-19T23:56:16.183Z,107.94
2022-11-19T23:58:43.493Z,108.33
